createdAt,value
2018-10-19T00:00:47.416Z,10.30
2018-10-19T00:03:16.459Z,10.30
2018-10-19T00:05:45.104Z,10.40
2018-10-19T00:08:13.644Z,10.30
2018-10-19T00:10:42.219Z,10.40
2018-10-19T00:13:11.044Z,10.30
2018-10-19T00:15:39.632Z,10.30
2018-10-19T00:18:08.371Z,10.20
2018-10-19T00:20:36.907Z,10.20
2018-10-19T00:23:05.567Z,10.20
2018-10-19T00:25:34.115Z,10.30
2018-10-19T00:28:02.674Z,10.30
2018-10-19T00:30:31.498Z,10.20
2018-10-19T00:33:00.825Z,10.20
2018-10-19T00:35:29.329Z,10.10
2018-10-19T00:37:57.955Z,10.00
2018-10-19T00:40:26.523Z,10.00
2018-10-19T00:42:55.131Z,10.00
2018-10-19T00:45:27.898Z,10.00
2018-10-19T00:47:56.379Z,9.90
2018-10-19T00:50:24.870Z,9.90
2018-10-19T00:52:53.356Z,9.90
2018-10-19T00:55:21.966Z,9.80
2018-10-19T00:57:50.509Z,9.70
2018-10-19T01:00:19.670Z,9.70
2018-10-19T01:02:48.215Z,9.70
2018-10-19T01:05:16.835Z,9.80
2018-10-19T01:07:45.463Z,9.70
2018-10-19T01:10:18.335Z,9.80
2018-10-19T01:12:46.960Z,9.80
2018-10-19T01:15:15.783Z,9.80
2018-10-19T01:17:44.238Z,9.80
2018-10-19T01:20:12.802Z,9.70
2018-10-19T01:22:41.330Z,9.70
2018-10-19T01:25:09.894Z,9.70
2018-10-19T01:27:38.372Z,9.60
2018-10-19T01:30:07.772Z,9.50
2018-10-19T01:32:36.637Z,9.40
2018-10-19T01:35:06.309Z,9.40
2018-10-19T01:37:36.126Z,9.30
2018-10-19T01:40:06.269Z,9.30
2018-10-19T01:42:34.792Z,9.30
2018-10-19T01:45:03.500Z,9.30
2018-10-19T01:47:31.982Z,9.30
2018-10-19T01:50:00.470Z,9.30
2018-10-19T01:52:29.019Z,9.40
2018-10-19T01:54:57.488Z,9.30
2018-10-19T01:57:26.119Z,9.40
2018-10-19T01:59:54.706Z,9.40
2018-10-19T02:02:23.234Z,9.30
2018-10-19T02:04:51.837Z,9.30
2018-10-19T02:07:20.400Z,9.30
2018-10-19T02:09:48.956Z,9.30
2018-10-19T02:12:17.548Z,9.20
2018-10-19T02:14:46.131Z,9.30
2018-10-19T02:17:14.848Z,9.30
2018-10-19T02:19:43.335Z,9.30
2018-10-19T02:22:11.955Z,9.30
2018-10-19T02:24:40.504Z,9.40
2018-10-19T02:27:09.221Z,9.50
2018-10-19T02:29:37.847Z,9.50
2018-10-19T02:32:06.427Z,9.50
2018-10-19T02:34:35.053Z,9.70
2018-10-19T02:37:03.532Z,9.70
2018-10-19T02:39:32.191Z,9.90
2018-10-19T02:42:00.761Z,9.90
2018-10-19T02:44:29.790Z,10.00
2018-10-19T02:46:58.687Z,10.00
2018-10-19T02:49:27.215Z,9.90
2018-10-19T02:51:55.763Z,9.80
2018-10-19T02:54:24.386Z,9.90
2018-10-19T02:56:52.902Z,9.90
2018-10-19T02:59:21.454Z,9.90
2018-10-19T03:01:49.958Z,9.90
2018-10-19T03:04:18.618Z,9.90
2018-10-19T03:06:47.194Z,9.90
2018-10-19T03:09:15.753Z,9.90
2018-10-19T03:11:44.483Z,9.90
2018-10-19T03:14:12.911Z,9.90
2018-10-19T03:16:42.399Z,9.80
2018-10-19T03:19:11.654Z,9.70
2018-10-19T03:21:40.340Z,9.70
2018-10-19T03:24:08.901Z,9.60
2018-10-19T03:26:37.523Z,9.60
2018-10-19T03:29:06.324Z,9.50
2018-10-19T03:31:34.901Z,9.50
2018-10-19T03:34:03.681Z,9.50
2018-10-19T03:36:32.256Z,9.40
2018-10-19T03:39:00.835Z,9.40
2018-10-19T03:41:29.411Z,9.40
2018-10-19T03:43:58.047Z,9.40
2018-10-19T03:46:26.594Z,9.40
2018-10-19T03:48:55.224Z,9.40
2018-10-19T03:51:23.753Z,9.40
2018-10-19T03:53:52.379Z,9.40
2018-10-19T03:56:20.961Z,9.30
2018-10-19T03:58:49.537Z,9.20
2018-10-19T04:01:18.168Z,9.10
2018-10-19T04:03:46.739Z,9.10
2018-10-19T04:06:15.272Z,9.10
2018-10-19T04:08:43.754Z,9.10
2018-10-19T04:11:12.522Z,9.00
2018-10-19T04:13:40.967Z,9.00
2018-10-19T04:16:09.550Z,8.90
2018-10-19T04:18:38.066Z,9.00
2018-10-19T04:21:06.718Z,8.90
2018-10-19T04:23:35.327Z,8.90
2018-10-19T04:26:03.832Z,8.90
2018-10-19T04:28:32.777Z,8.90
2018-10-19T04:31:01.269Z,8.90
2018-10-19T04:33:29.816Z,8.90
2018-10-19T04:35:58.332Z,8.80
2018-10-19T04:38:26.971Z,8.80
2018-10-19T04:40:55.468Z,8.80
2018-10-19T04:43:24.083Z,8.80
2018-10-19T04:45:52.750Z,8.90
2018-10-19T04:48:21.314Z,8.90
2018-10-19T04:50:49.841Z,8.90
2018-10-19T04:53:18.488Z,8.90
2018-10-19T04:55:47.090Z,8.90
2018-10-19T04:58:15.597Z,9.00
2018-10-19T05:00:44.260Z,9.00
2018-10-19T05:03:12.828Z,9.00
2018-10-19T05:05:41.539Z,9.00
2018-10-19T05:08:10.024Z,8.90
2018-10-19T05:10:38.658Z,9.00
2018-10-19T05:13:07.376Z,9.00
2018-10-19T05:15:35.852Z,9.10
2018-10-19T05:18:04.634Z,9.10
2018-10-19T05:20:33.203Z,9.10
2018-10-19T05:23:01.743Z,9.10
2018-10-19T05:25:30.413Z,9.20
2018-10-19T05:27:58.927Z,9.20
2018-10-19T05:30:27.546Z,9.20
2018-10-19T05:32:56.181Z,9.30
2018-10-19T05:35:25.386Z,9.30
2018-10-19T05:37:54.111Z,9.30
2018-10-19T05:40:22.876Z,9.30
2018-10-19T05:42:51.486Z,9.30
2018-10-19T05:45:20.078Z,9.30
2018-10-19T05:47:48.607Z,9.40
2018-10-19T05:50:17.592Z,9.40
2018-10-19T05:52:46.030Z,9.50
2018-10-19T05:55:15.499Z,9.50
2018-10-19T05:57:44.000Z,9.50
2018-10-19T06:00:13.795Z,9.50
2018-10-19T06:02:42.586Z,9.50
2018-10-19T06:05:11.068Z,9.50
2018-10-19T06:07:41.221Z,9.50
2018-10-19T06:10:10.363Z,9.50
2018-10-19T06:12:39.326Z,9.60
2018-10-19T06:15:09.533Z,9.60
2018-10-19T06:17:38.770Z,9.70
2018-10-19T06:20:08.116Z,9.70
2018-10-19T06:22:37.484Z,9.90
2018-10-19T06:25:06.387Z,9.90
2018-10-19T06:27:35.117Z,9.90
2018-10-19T06:30:03.774Z,9.90
2018-10-19T06:32:33.420Z,9.90
2018-10-19T06:35:02.004Z,9.90
2018-10-19T06:37:30.475Z,9.90
2018-10-19T06:39:59.043Z,9.80
2018-10-19T06:42:27.617Z,9.80
2018-10-19T06:44:56.123Z,9.80
2018-10-19T06:47:25.767Z,9.90
2018-10-19T06:49:54.351Z,10.00
2018-10-19T06:52:22.801Z,10.00
2018-10-19T06:54:51.440Z,10.00
2018-10-19T06:57:19.984Z,10.10
2018-10-19T06:59:48.597Z,10.10
2018-10-19T07:02:17.326Z,10.10
2018-10-19T07:04:45.956Z,10.20
2018-10-19T07:07:14.586Z,10.20
2018-10-19T07:09:43.046Z,10.20
2018-10-19T07:12:11.893Z,10.30
2018-10-19T07:14:40.310Z,10.30
2018-10-19T07:17:09.085Z,10.30
2018-10-19T07:19:37.700Z,10.40
2018-10-19T07:22:06.688Z,10.40
2018-10-19T07:24:35.213Z,10.30
2018-10-19T07:27:04.532Z,10.30
2018-10-19T07:29:33.075Z,10.30
2018-10-19T07:32:01.712Z,10.20
2018-10-19T07:34:31.020Z,10.30
2018-10-19T07:36:59.619Z,10.30
2018-10-19T07:39:28.274Z,10.40
2018-10-19T07:41:56.860Z,10.40
2018-10-19T07:44:25.517Z,10.50
2018-10-19T07:46:54.140Z,10.50
2018-10-19T07:49:22.778Z,10.50
2018-10-19T07:51:51.533Z,10.60
2018-10-19T07:54:20.182Z,10.60
2018-10-19T07:56:48.758Z,10.60
2018-10-19T07:59:17.333Z,10.70
2018-10-19T08:01:45.859Z,10.70
2018-10-19T08:04:15.177Z,10.80
2018-10-19T08:06:43.770Z,10.90
2018-10-19T08:09:12.347Z,10.90
2018-10-19T08:11:40.943Z,11.20
2018-10-19T08:14:09.494Z,11.30
2018-10-19T08:16:38.220Z,11.50
2018-10-19T08:19:06.795Z,11.60
2018-10-19T08:21:35.455Z,11.80
2018-10-19T08:24:04.178Z,11.70
2018-10-19T08:26:32.715Z,11.70
2018-10-19T08:29:02.031Z,11.70
2018-10-19T08:31:30.633Z,11.80
2018-10-19T08:33:59.129Z,11.90
2018-10-19T08:36:27.961Z,12.00
2018-10-19T08:38:56.835Z,12.00
2018-10-19T08:41:25.537Z,12.00
2018-10-19T08:43:54.374Z,12.00
2018-10-19T08:46:28.550Z,12.00
2018-10-19T08:48:57.928Z,12.20
2018-10-19T08:51:26.548Z,12.20
2018-10-19T08:53:55.269Z,12.20
2018-10-19T08:56:23.791Z,12.30
2018-10-19T08:58:52.417Z,12.40
2018-10-19T09:01:20.982Z,12.50
2018-10-19T09:03:49.645Z,12.60
2018-10-19T09:06:18.785Z,12.70
2018-10-19T09:08:47.299Z,12.80
2018-10-19T09:11:16.047Z,12.80
2018-10-19T09:13:44.791Z,12.90
2018-10-19T09:16:13.506Z,12.90
2018-10-19T09:18:42.388Z,13.00
2018-10-19T09:21:12.782Z,13.00
2018-10-19T09:23:41.603Z,13.10
2018-10-19T09:26:10.372Z,13.10
2018-10-19T09:28:39.068Z,13.20
2018-10-19T09:31:07.827Z,13.20
2018-10-19T09:33:36.458Z,13.30
2018-10-19T09:36:05.316Z,13.30
2018-10-19T09:38:34.105Z,13.30
2018-10-19T09:41:03.021Z,13.40
2018-10-19T09:43:31.467Z,13.50
2018-10-19T09:46:00.090Z,13.50
2018-10-19T09:48:28.666Z,13.60
2018-10-19T09:50:58.201Z,13.70
2018-10-19T09:53:26.656Z,13.80
2018-10-19T09:55:56.225Z,13.70
2018-10-19T09:58:24.964Z,13.80
2018-10-19T10:00:56.411Z,13.80
2018-10-19T10:03:25.917Z,13.80
2018-10-19T10:05:54.782Z,13.70
2018-10-19T10:08:23.922Z,13.60
2018-10-19T10:10:52.500Z,13.60
2018-10-19T10:13:21.205Z,13.70
2018-10-19T10:15:50.779Z,13.70
2018-10-19T10:18:19.757Z,13.80
2018-10-19T10:20:48.288Z,14.00
2018-10-19T10:23:17.030Z,14.10
2018-10-19T10:25:45.636Z,14.20
2018-10-19T10:28:14.422Z,14.30
2018-10-19T10:30:42.917Z,14.40
2018-10-19T10:33:11.724Z,14.50
2018-10-19T10:35:40.272Z,14.50
2018-10-19T10:38:08.757Z,14.50
2018-10-19T10:40:37.313Z,14.50
2018-10-19T10:43:05.932Z,14.40
2018-10-19T10:45:34.572Z,14.30
2018-10-19T10:48:03.127Z,14.40
2018-10-19T10:50:31.698Z,14.50
2018-10-19T10:53:00.244Z,14.40
2018-10-19T10:55:28.749Z,14.50
2018-10-19T10:57:57.278Z,14.60
2018-10-19T11:00:25.707Z,14.60
2018-10-19T11:02:54.543Z,14.60
2018-10-19T11:05:23.319Z,14.60
2018-10-19T11:07:51.928Z,14.70
2018-10-19T11:10:20.454Z,14.70
2018-10-19T11:12:49.267Z,14.80
2018-10-19T11:15:18.588Z,15.00
2018-10-19T11:17:47.131Z,15.10
2018-10-19T11:20:15.815Z,15.20
2018-10-19T11:22:44.473Z,15.30
2018-10-19T11:25:13.140Z,15.40
2018-10-19T11:27:41.703Z,15.50
2018-10-19T11:30:10.525Z,15.50
2018-10-19T11:32:39.235Z,15.50
2018-10-19T11:35:08.090Z,15.40
2018-10-19T11:37:36.725Z,15.50
2018-10-19T11:40:29.023Z,15.40
2018-10-19T11:42:57.704Z,15.40
2018-10-19T11:45:27.631Z,15.40
2018-10-19T11:47:56.134Z,15.50
2018-10-19T11:50:24.670Z,15.60
2018-10-19T11:52:53.254Z,15.60
2018-10-19T11:55:21.819Z,15.70
2018-10-19T11:57:50.999Z,15.80
2018-10-19T12:00:19.751Z,15.80
2018-10-19T12:02:48.331Z,15.80
2018-10-19T12:05:16.873Z,15.80
2018-10-19T12:07:45.536Z,15.90
2018-10-19T12:10:14.789Z,15.90
2018-10-19T12:12:43.737Z,16.00
2018-10-19T12:15:13.953Z,16.10
2018-10-19T12:17:43.156Z,16.00
2018-10-19T12:20:13.649Z,15.90
2018-10-19T12:22:42.137Z,15.80
2018-10-19T12:25:11.778Z,15.70
2018-10-19T12:27:40.669Z,15.70
2018-10-19T12:30:10.973Z,15.60
2018-10-19T12:32:39.827Z,15.50
2018-10-19T12:35:10.271Z,15.50
2018-10-19T12:37:38.961Z,15.50
2018-10-19T12:40:08.371Z,15.50
2018-10-19T12:42:37.290Z,15.40
2018-10-19T12:45:11.124Z,15.40
2018-10-19T12:47:43.102Z,15.40
2018-10-19T12:50:12.455Z,15.40
2018-10-19T12:52:41.083Z,15.40
2018-10-19T12:55:09.635Z,15.40
2018-10-19T12:57:38.156Z,15.40
2018-10-19T13:00:07.624Z,15.50
2018-10-19T13:02:36.152Z,15.70
2018-10-19T13:05:04.859Z,15.70
2018-10-19T13:07:33.451Z,15.80
2018-10-19T13:10:02.009Z,15.90
2018-10-19T13:12:30.562Z,16.00
2018-10-19T13:14:59.239Z,16.10
2018-10-19T13:17:27.767Z,16.10
2018-10-19T13:19:56.335Z,16.10
2018-10-19T13:22:25.031Z,16.10
2018-10-19T13:24:53.525Z,16.20
2018-10-19T13:27:22.259Z,16.30
2018-10-19T13:29:50.846Z,16.50
2018-10-19T13:32:19.567Z,16.60
2018-10-19T13:34:48.151Z,16.70
2018-10-19T13:37:16.733Z,16.80
2018-10-19T13:39:45.407Z,16.70
2018-10-19T13:42:14.087Z,16.70
2018-10-19T13:44:42.667Z,16.70
2018-10-19T13:47:11.529Z,16.70
2018-10-19T13:49:40.098Z,16.60
2018-10-19T13:52:08.860Z,16.70
2018-10-19T13:54:37.460Z,16.80
2018-10-19T13:57:06.063Z,16.80
2018-10-19T13:59:35.410Z,16.80
2018-10-19T14:02:04.027Z,16.80
2018-10-19T14:04:32.754Z,16.70
2018-10-19T14:07:01.263Z,16.80
2018-10-19T14:09:29.812Z,16.80
2018-10-19T14:11:58.580Z,16.80
2018-10-19T14:14:28.211Z,16.70
2018-10-19T14:16:56.768Z,16.60
2018-10-19T14:19:25.447Z,16.60
2018-10-19T14:21:54.539Z,16.60
2018-10-19T14:24:23.058Z,16.60
2018-10-19T14:26:51.805Z,16.70
2018-10-19T14:29:20.231Z,16.70
2018-10-19T14:31:48.981Z,16.70
2018-10-19T14:34:17.863Z,16.70
2018-10-19T14:36:46.447Z,16.70
2018-10-19T14:39:16.025Z,16.70
2018-10-19T14:41:44.665Z,16.60
2018-10-19T14:44:13.378Z,16.50
2018-10-19T14:46:42.080Z,16.40
2018-10-19T14:49:10.638Z,16.30
2018-10-19T14:51:39.344Z,16.30
2018-10-19T14:54:07.991Z,16.20
2018-10-19T14:56:36.494Z,16.10
2018-10-19T14:59:05.844Z,16.10
2018-10-19T15:01:34.367Z,16.10
2018-10-19T15:04:02.960Z,16.10
2018-10-19T15:06:31.659Z,16.10
2018-10-19T15:09:00.216Z,16.00
2018-10-19T15:11:28.999Z,16.00
2018-10-19T15:13:57.371Z,16.00
2018-10-19T15:16:26.329Z,15.90
2018-10-19T15:18:54.988Z,15.90
2018-10-19T15:21:23.543Z,15.80
2018-10-19T15:23:52.051Z,15.80
2018-10-19T15:26:23.204Z,15.70
2018-10-19T15:28:51.733Z,15.70
2018-10-19T15:31:20.460Z,15.60
2018-10-19T15:33:49.761Z,15.60
2018-10-19T15:36:19.031Z,15.60
2018-10-19T15:38:47.563Z,15.40
2018-10-19T15:41:16.213Z,15.40
2018-10-19T15:43:45.123Z,15.30
2018-10-19T15:46:13.727Z,15.20
2018-10-19T15:48:42.357Z,15.10
2018-10-19T15:51:10.928Z,15.10
2018-10-19T15:53:39.510Z,15.00
2018-10-19T15:56:08.088Z,14.80
2018-10-19T15:58:36.946Z,14.80
2018-10-19T16:01:05.671Z,14.70
2018-10-19T16:03:34.173Z,14.60
2018-10-19T16:06:02.751Z,14.60
2018-10-19T16:08:31.254Z,14.40
2018-10-19T16:10:59.874Z,14.40
2018-10-19T16:13:28.392Z,14.20
2018-10-19T16:15:57.015Z,14.20
2018-10-19T16:18:25.506Z,14.10
2018-10-19T16:20:54.314Z,14.00
2018-10-19T16:23:23.090Z,14.00
2018-10-19T16:25:51.781Z,13.90
2018-10-19T16:28:20.416Z,13.80
2018-10-19T16:30:49.051Z,13.70
2018-10-19T16:33:17.761Z,13.60
2018-10-19T16:35:46.316Z,13.50
2018-10-19T16:38:14.888Z,13.50
2018-10-19T16:40:43.815Z,13.40
2018-10-19T16:43:12.448Z,13.40
2018-10-19T16:45:41.631Z,13.40
2018-10-19T16:48:10.467Z,13.30
2018-10-19T16:50:38.907Z,13.20
2018-10-19T16:53:07.655Z,13.20
2018-10-19T16:55:36.393Z,13.20
2018-10-19T16:58:05.962Z,13.20
2018-10-19T17:00:34.532Z,13.10
2018-10-19T17:03:03.324Z,13.10
2018-10-19T17:05:31.797Z,13.10
2018-10-19T17:08:00.472Z,13.00
2018-10-19T17:10:29.097Z,13.00
2018-10-19T17:12:57.891Z,13.00
2018-10-19T17:15:26.461Z,13.00
2018-10-19T17:17:55.123Z,12.90
2018-10-19T17:20:23.695Z,12.80
2018-10-19T17:22:52.287Z,12.80
2018-10-19T17:25:20.913Z,12.80
2018-10-19T17:27:49.881Z,12.70
2018-10-19T17:30:18.644Z,12.60
2018-10-19T17:32:47.204Z,12.50
2018-10-19T17:35:16.726Z,12.50
2018-10-19T17:37:46.177Z,12.40
2018-10-19T17:40:14.902Z,12.40
2018-10-19T17:42:43.667Z,12.30
2018-10-19T17:45:12.451Z,12.30
2018-10-19T17:47:42.484Z,12.20
2018-10-19T17:50:10.739Z,12.20
2018-10-19T17:52:39.446Z,12.10
2018-10-19T17:55:09.637Z,12.10
2018-10-19T17:57:38.644Z,12.00
2018-10-19T18:00:08.681Z,12.00
2018-10-19T18:02:37.291Z,12.00
2018-10-19T18:05:06.691Z,12.00
2018-10-19T18:07:35.271Z,11.90
2018-10-19T18:10:03.958Z,11.90
2018-10-19T18:12:32.517Z,11.90
2018-10-19T18:15:01.176Z,11.90
2018-10-19T18:17:29.639Z,11.90
2018-10-19T18:19:59.606Z,11.90
2018-10-19T18:22:28.329Z,11.90
2018-10-19T18:24:56.983Z,11.90
2018-10-19T18:27:26.356Z,11.90
2018-10-19T18:29:55.066Z,11.90
2018-10-19T18:32:23.745Z,12.00
2018-10-19T18:34:52.499Z,12.00
2018-10-19T18:37:21.990Z,12.00
2018-10-19T18:39:51.161Z,12.10
2018-10-19T18:42:20.015Z,12.10
2018-10-19T18:44:48.765Z,12.10
2018-10-19T18:47:17.336Z,12.00
2018-10-19T18:49:45.871Z,12.10
2018-10-19T18:52:14.504Z,12.00
2018-10-19T18:54:43.145Z,12.10
2018-10-19T18:57:12.373Z,12.10
2018-10-19T18:59:41.008Z,12.10
2018-10-19T19:02:09.668Z,12.10
2018-10-19T19:04:38.342Z,12.10
2018-10-19T19:07:07.104Z,12.20
2018-10-19T19:09:35.891Z,12.20
2018-10-19T19:12:04.660Z,12.20
2018-10-19T19:14:33.323Z,12.10
2018-10-19T19:17:02.092Z,12.10
2018-10-19T19:19:30.688Z,12.10
2018-10-19T19:21:59.347Z,12.10
2018-10-19T19:24:33.238Z,12.00
2018-10-19T19:27:01.911Z,12.00
2018-10-19T19:29:30.723Z,12.00
2018-10-19T19:31:59.428Z,12.10
2018-10-19T19:34:32.235Z,12.00
2018-10-19T19:37:00.901Z,12.00
2018-10-19T19:39:29.619Z,11.90
2018-10-19T19:42:03.590Z,11.90
2018-10-19T19:44:32.262Z,11.90
2018-10-19T19:47:02.119Z,11.90
2018-10-19T19:49:38.547Z,11.90
2018-10-19T19:52:07.364Z,11.90
2018-10-19T19:54:36.099Z,11.80
2018-10-19T19:57:04.959Z,11.70
2018-10-19T19:59:33.572Z,11.60
2018-10-19T20:02:02.330Z,11.50
2018-10-19T20:04:31.086Z,11.60
2018-10-19T20:07:00.391Z,11.60
2018-10-19T20:09:29.043Z,11.50
2018-10-19T20:11:57.671Z,11.50
2018-10-19T20:14:26.644Z,11.50
2018-10-19T20:16:55.812Z,11.30
2018-10-19T20:19:24.596Z,11.30
2018-10-19T20:21:53.305Z,11.30
2018-10-19T20:24:21.860Z,11.20
2018-10-19T20:26:50.442Z,11.20
2018-10-19T20:29:19.031Z,11.20
2018-10-19T20:31:47.710Z,11.10
2018-10-19T20:34:16.439Z,11.10
2018-10-19T20:36:45.287Z,11.00
2018-10-19T20:39:13.918Z,11.00
2018-10-19T20:41:42.713Z,11.00
2018-10-19T20:44:11.765Z,11.00
2018-10-19T20:46:40.370Z,10.90
2018-10-19T20:49:09.863Z,10.90
2018-10-19T20:51:38.398Z,10.90
2018-10-19T20:54:06.998Z,10.90
2018-10-19T20:56:35.589Z,10.80
2018-10-19T20:59:04.186Z,10.80
2018-10-19T21:01:32.786Z,10.80
2018-10-19T21:04:01.363Z,10.80
2018-10-19T21:06:30.011Z,10.80
2018-10-19T21:08:58.653Z,10.80
2018-10-19T21:11:27.287Z,10.70
2018-10-19T21:13:56.081Z,10.70
2018-10-19T21:16:24.623Z,10.70
2018-10-19T21:18:53.397Z,10.70
2018-10-19T21:21:21.888Z,10.70
2018-10-19T21:23:50.484Z,10.60
2018-10-19T21:26:19.399Z,10.70
2018-10-19T21:28:48.000Z,10.70
2018-10-19T21:31:16.517Z,10.70
2018-10-19T21:33:45.171Z,10.70
2018-10-19T21:36:13.716Z,10.70
2018-10-19T21:38:42.438Z,10.80
2018-10-19T21:41:11.812Z,10.90
2018-10-19T21:43:40.378Z,11.00
2018-10-19T21:46:08.924Z,11.00
2018-10-19T21:48:37.428Z,11.00
2018-10-19T21:51:06.477Z,11.10
2018-10-19T21:53:34.992Z,11.10
2018-10-19T21:56:03.514Z,11.10
2018-10-19T21:58:32.648Z,11.20
2018-10-19T22:01:01.650Z,11.30
2018-10-19T22:03:30.210Z,11.30
2018-10-19T22:05:58.823Z,11.30
2018-10-19T22:08:27.372Z,11.40
2018-10-19T22:10:56.022Z,11.40
2018-10-19T22:13:24.492Z,11.30
2018-10-19T22:15:53.192Z,11.20
2018-10-19T22:18:21.718Z,11.10
2018-10-19T22:20:50.246Z,11.00
2018-10-19T22:23:18.973Z,10.90
2018-10-19T22:25:47.518Z,10.90
2018-10-19T22:28:16.044Z,10.80
2018-10-19T22:30:45.231Z,10.80
2018-10-19T22:33:13.764Z,10.70
2018-10-19T22:35:42.391Z,10.70
2018-10-19T22:38:10.927Z,10.70
2018-10-19T22:40:39.418Z,10.70
2018-10-19T22:43:08.154Z,10.60
2018-10-19T22:45:37.343Z,10.60
2018-10-19T22:48:06.432Z,10.60
2018-10-19T22:50:34.987Z,10.60
2018-10-19T22:53:03.575Z,10.50
2018-10-19T22:55:32.321Z,10.40
2018-10-19T22:58:00.822Z,10.40
2018-10-19T23:00:29.409Z,10.30
2018-10-19T23:02:58.036Z,10.30
2018-10-19T23:05:26.611Z,10.30
2018-10-19T23:07:55.256Z,10.20
2018-10-19T23:10:23.795Z,10.20
2018-10-19T23:12:52.379Z,10.10
2018-10-19T23:15:20.927Z,10.10
2018-10-19T23:17:49.570Z,10.10
2018-10-19T23:20:18.172Z,10.00
2018-10-19T23:22:46.695Z,10.00
2018-10-19T23:25:15.285Z,10.00
2018-10-19T23:27:44.486Z,9.90
2018-10-19T23:30:13.096Z,9.90
2018-10-19T23:32:42.503Z,9.90
2018-10-19T23:35:11.337Z,9.80
2018-10-19T23:37:39.897Z,9.70
2018-10-19T23:40:08.591Z,9.70
2018-10-19T23:42:37.174Z,9.70
2018-10-19T23:45:06.876Z,9.70
2018-10-19T23:47:35.479Z,9.60
2018-10-19T23:50:03.967Z,9.70
2018-10-19T23:52:32.524Z,9.60
2018-10-19T23:55:01.119Z,9.60
2018-10-19T23:57:29.599Z,9.60
2018-10-19T23:59:58.204Z,9.60
